sensor_id;sensor_type;location;lat;lon;timestamp;pressure;altitude;pressure_sealevel;temperature;humidity
74542;BME280;63015;45.378;20.360;2023-02-28T00:00:35;101686.69;;;2.06;73.79
74542;BME280;63015;45.378;20.360;2023-02-28T00:02:40;101678.16;;;2.07;74.16
74542;BME280;63015;45.378;20.360;2023-02-28T00:04:42;101680.47;;;1.86;74.60
74542;BME280;63015;45.378;20.360;2023-02-28T00:06:42;101677.03;;;2.02;74.12
74542;BME280;63015;45.378;20.360;2023-02-28T00:08:43;101679.25;;;1.95;74.46
74542;BME280;63015;45.378;20.360;2023-02-28T00:10:44;101686.91;;;1.94;74.69
74542;BME280;63015;45.378;20.360;2023-02-28T00:12:44;101698.56;;;1.72;74.79
74542;BME280;63015;45.378;20.360;2023-02-28T00:14:45;101703.25;;;1.79;74.64
74542;BME280;63015;45.378;20.360;2023-02-28T00:16:45;101700.91;;;1.53;75.04
74542;BME280;63015;45.378;20.360;2023-02-28T00:18:46;101700.34;;;1.58;75.53
74542;BME280;63015;45.378;20.360;2023-02-28T00:20:50;101703.84;;;1.59;75.77
74542;BME280;63015;45.378;20.360;2023-02-28T00:22:52;101706.16;;;1.39;76.01
74542;BME280;63015;45.378;20.360;2023-02-28T00:24:52;101703.84;;;1.59;75.77
74542;BME280;63015;45.378;20.360;2023-02-28T00:26:53;101710.69;;;1.43;76.41
74542;BME280;63015;45.378;20.360;2023-02-28T00:28:53;101714.75;;;1.40;76.80
74542;BME280;63015;45.378;20.360;2023-02-28T00:30:54;101715.66;;;1.25;77.57
74542;BME280;63015;45.378;20.360;2023-02-28T00:32:54;101719.09;;;1.26;77.74
74542;BME280;63015;45.378;20.360;2023-02-28T00:34:55;101720.44;;;1.34;77.79
74542;BME280;63015;45.378;20.360;2023-02-28T00:36:56;101717.88;;;1.34;78.23
74542;BME280;63015;45.378;20.360;2023-02-28T00:38:56;101719.59;;;1.35;77.86
74542;BME280;63015;45.378;20.360;2023-02-28T00:40:57;101726.09;;;1.28;78.35
74542;BME280;63015;45.378;20.360;2023-02-28T00:42:59;101728.22;;;1.06;79.38
74542;BME280;63015;45.378;20.360;2023-02-28T00:44:59;101722.38;;;1.08;79.41
74542;BME280;63015;45.378;20.360;2023-02-28T00:47:00;101726.25;;;0.87;79.93
74542;BME280;63015;45.378;20.360;2023-02-28T00:49:01;101728.72;;;1.00;79.86
74542;BME280;63015;45.378;20.360;2023-02-28T00:51:01;101725.03;;;1.10;79.75
74542;BME280;63015;45.378;20.360;2023-02-28T00:53:02;101723.22;;;0.94;80.07
74542;BME280;63015;45.378;20.360;2023-02-28T00:55:03;101724.00;;;0.78;80.92
74542;BME280;63015;45.378;20.360;2023-02-28T00:57:03;101724.38;;;0.84;80.43
74542;BME280;63015;45.378;20.360;2023-02-28T00:59:05;101725.13;;;0.68;81.19
74542;BME280;63015;45.378;20.360;2023-02-28T01:01:06;101718.88;;;0.49;82.29
74542;BME280;63015;45.378;20.360;2023-02-28T01:03:07;101717.00;;;0.75;81.87
74542;BME280;63015;45.378;20.360;2023-02-28T01:05:07;101719.97;;;0.53;82.58
74542;BME280;63015;45.378;20.360;2023-02-28T01:07:08;101712.28;;;0.53;82.79
74542;BME280;63015;45.378;20.360;2023-02-28T01:09:09;101720.44;;;0.61;82.48
74542;BME280;63015;45.378;20.360;2023-02-28T01:11:12;101713.69;;;0.63;82.59
74542;BME280;63015;45.378;20.360;2023-02-28T01:13:14;101711.56;;;0.56;82.70
74542;BME280;63015;45.378;20.360;2023-02-28T01:15:15;101708.06;;;0.84;81.97
74542;BME280;63015;45.378;20.360;2023-02-28T01:17:16;101705.25;;;0.94;81.00
74542;BME280;63015;45.378;20.360;2023-02-28T01:19:16;101702.78;;;0.80;81.58
74542;BME280;63015;45.378;20.360;2023-02-28T01:21:19;101705.53;;;0.55;82.70
74542;BME280;63015;45.378;20.360;2023-02-28T01:23:20;101701.22;;;0.54;83.46
74542;BME280;63015;45.378;20.360;2023-02-28T01:25:23;101698.44;;;0.79;82.24
74542;BME280;63015;45.378;20.360;2023-02-28T01:27:23;101693.03;;;0.75;82.48
74542;BME280;63015;45.378;20.360;2023-02-28T01:29:26;101699.03;;;0.75;81.97
74542;BME280;63015;45.378;20.360;2023-02-28T01:31:27;101703.31;;;0.46;82.70
74542;BME280;63015;45.378;20.360;2023-02-28T01:33:28;101692.59;;;0.67;83.10
74542;BME280;63015;45.378;20.360;2023-02-28T01:35:28;101693.88;;;0.60;82.94
74542;BME280;63015;45.378;20.360;2023-02-28T01:37:32;101696.84;;;0.81;82.25
74542;BME280;63015;45.378;20.360;2023-02-28T01:39:32;101694.78;;;0.76;81.82
74542;BME280;63015;45.378;20.360;2023-02-28T01:41:34;101693.03;;;0.75;82.28
74542;BME280;63015;45.378;20.360;2023-02-28T01:45:46;101688.25;;;0.66;82.41
74542;BME280;63015;45.378;20.360;2023-02-28T01:47:48;101687.94;;;0.61;82.54
74542;BME280;63015;45.378;20.360;2023-02-28T01:49:51;101691.66;;;0.52;83.03
74542;BME280;63015;45.378;20.360;2023-02-28T01:51:54;101691.38;;;0.47;83.48
74542;BME280;63015;45.378;20.360;2023-02-28T01:54:00;101693.94;;;0.47;83.54
74542;BME280;63015;45.378;20.360;2023-02-28T01:56:03;101684.66;;;0.49;83.18
74542;BME280;63015;45.378;20.360;2023-02-28T01:58:07;101686.31;;;0.34;83.74
74542;BME280;63015;45.378;20.360;2023-02-28T02:00:12;101688.34;;;0.39;84.14
74542;BME280;63015;45.378;20.360;2023-02-28T02:02:16;101690.91;;;0.39;83.99
74542;BME280;63015;45.378;20.360;2023-02-28T02:04:18;101687.59;;;0.27;83.83
74542;BME280;63015;45.378;20.360;2023-02-28T02:06:26;101696.59;;;0.48;83.65
74542;BME280;63015;45.378;20.360;2023-02-28T02:08:28;101694.25;;;0.38;83.59
74542;BME280;63015;45.378;20.360;2023-02-28T02:10:36;101692.69;;;0.40;83.53
74542;BME280;63015;45.378;20.360;2023-02-28T02:17:14;101691.53;;;0.50;83.55
74542;BME280;63015;45.378;20.360;2023-02-28T02:24:28;101691.44;;;0.34;83.84
74542;BME280;63015;45.378;20.360;2023-02-28T02:38:33;101713.16;;;0.54;83.21
74542;BME280;63015;45.378;20.360;2023-02-28T02:41:08;101712.81;;;0.34;83.59
74542;BME280;63015;45.378;20.360;2023-02-28T02:43:34;101707.69;;;0.34;83.57
74542;BME280;63015;45.378;20.360;2023-02-28T02:45:55;101722.09;;;0.32;83.68
74542;BME280;63015;45.378;20.360;2023-02-28T02:47:58;101710.66;;;0.55;83.37
74542;BME280;63015;45.378;20.360;2023-02-28T02:50:04;101707.38;;;0.43;83.02
74542;BME280;63015;45.378;20.360;2023-02-28T02:52:09;101713.06;;;0.52;83.52
74542;BME280;63015;45.378;20.360;2023-02-28T02:54:17;101718.66;;;0.60;82.98
74542;BME280;63015;45.378;20.360;2023-02-28T02:56:23;101716.69;;;0.56;82.85
74542;BME280;63015;45.378;20.360;2023-02-28T02:58:29;101715.53;;;0.51;83.10
74542;BME280;63015;45.378;20.360;2023-02-28T03:00:39;101710.09;;;0.31;83.62
74542;BME280;63015;45.378;20.360;2023-02-28T03:02:44;101715.09;;;0.58;83.13
74542;BME280;63015;45.378;20.360;2023-02-28T03:04:51;101717.88;;;0.61;82.83
74542;BME280;63015;45.378;20.360;2023-02-28T03:06:55;101719.19;;;0.69;82.66
74542;BME280;63015;45.378;20.360;2023-02-28T03:08:56;101720.72;;;0.80;82.15
74542;BME280;63015;45.378;20.360;2023-02-28T03:11:00;101723.78;;;0.60;82.39
74542;BME280;63015;45.378;20.360;2023-02-28T03:15:40;101722.75;;;0.71;82.21
74542;BME280;63015;45.378;20.360;2023-02-28T03:26:34;101748.88;;;0.94;81.19
74542;BME280;63015;45.378;20.360;2023-02-28T03:30:50;101732.56;;;0.78;81.51
74542;BME280;63015;45.378;20.360;2023-02-28T03:32:58;101743.91;;;0.82;81.37
74542;BME280;63015;45.378;20.360;2023-02-28T03:37:14;101740.41;;;0.95;81.23
74542;BME280;63015;45.378;20.360;2023-02-28T03:39:37;101739.22;;;0.75;81.77
74542;BME280;63015;45.378;20.360;2023-02-28T03:41:49;101739.94;;;0.72;81.47
74542;BME280;63015;45.378;20.360;2023-02-28T03:44:09;101731.53;;;0.75;81.61
74542;BME280;63015;45.378;20.360;2023-02-28T03:46:19;101744.00;;;0.84;81.39
74542;BME280;63015;45.378;20.360;2023-02-28T03:48:27;101747.56;;;0.86;81.39
74542;BME280;63015;45.378;20.360;2023-02-28T03:50:40;101754.50;;;0.73;81.52
74542;BME280;63015;45.378;20.360;2023-02-28T03:52:49;101747.41;;;0.69;82.00
74542;BME280;63015;45.378;20.360;2023-02-28T03:54:53;101748.31;;;0.41;82.40
74542;BME280;63015;45.378;20.360;2023-02-28T03:57:04;101756.38;;;0.47;83.02
74542;BME280;63015;45.378;20.360;2023-02-28T03:59:22;101753.00;;;0.62;82.46
74542;BME280;63015;45.378;20.360;2023-02-28T04:01:33;101748.56;;;0.59;82.64
74542;BME280;63015;45.378;20.360;2023-02-28T04:03:37;101750.44;;;0.77;82.02
74542;BME280;63015;45.378;20.360;2023-02-28T04:05:55;101752.94;;;0.47;82.43
74542;BME280;63015;45.378;20.360;2023-02-28T04:08:06;101754.16;;;0.39;83.17
74542;BME280;63015;45.378;20.360;2023-02-28T04:10:08;101750.72;;;0.25;83.00
74542;BME280;63015;45.378;20.360;2023-02-28T04:12:09;101750.53;;;0.50;83.31
74542;BME280;63015;45.378;20.360;2023-02-28T04:14:10;101753.63;;;0.44;83.01
74542;BME280;63015;45.378;20.360;2023-02-28T04:16:11;101753.47;;;0.70;82.52
74542;BME280;63015;45.378;20.360;2023-02-28T04:18:12;101755.56;;;0.62;82.43
74542;BME280;63015;45.378;20.360;2023-02-28T04:20:12;101751.44;;;0.79;82.08
74542;BME280;63015;45.378;20.360;2023-02-28T04:22:13;101747.97;;;0.78;81.52
74542;BME280;63015;45.378;20.360;2023-02-28T04:24:31;101742.72;;;0.62;81.81
74542;BME280;63015;45.378;20.360;2023-02-28T04:26:36;101739.19;;;0.60;81.61
74542;BME280;63015;45.378;20.360;2023-02-28T04:28:37;101742.22;;;0.68;82.15
74542;BME280;63015;45.378;20.360;2023-02-28T04:30:38;101740.72;;;0.71;81.96
74542;BME280;63015;45.378;20.360;2023-02-28T04:32:39;101737.47;;;0.60;82.16
74542;BME280;63015;45.378;20.360;2023-02-28T04:34:39;101741.34;;;0.67;81.94
74542;BME280;63015;45.378;20.360;2023-02-28T04:36:40;101746.41;;;0.80;81.79
74542;BME280;63015;45.378;20.360;2023-02-28T04:38:41;101748.22;;;0.68;81.72
74542;BME280;63015;45.378;20.360;2023-02-28T04:40:41;101748.50;;;0.73;81.94
74542;BME280;63015;45.378;20.360;2023-02-28T04:42:42;101749.84;;;0.81;81.46
74542;BME280;63015;45.378;20.360;2023-02-28T04:44:42;101756.25;;;0.88;80.85
74542;BME280;63015;45.378;20.360;2023-02-28T04:46:43;101756.66;;;0.80;80.70
74542;BME280;63015;45.378;20.360;2023-02-28T04:48:44;101761.00;;;0.81;80.90
74542;BME280;63015;45.378;20.360;2023-02-28T04:50:45;101760.53;;;0.74;80.91
74542;BME280;63015;45.378;20.360;2023-02-28T04:52:45;101757.38;;;0.49;81.93
74542;BME280;63015;45.378;20.360;2023-02-28T04:54:46;101760.00;;;0.64;81.96
74542;BME280;63015;45.378;20.360;2023-02-28T04:56:46;101762.91;;;0.71;81.44
74542;BME280;63015;45.378;20.360;2023-02-28T04:58:49;101765.91;;;0.63;81.57
74542;BME280;63015;45.378;20.360;2023-02-28T05:00:52;101762.72;;;0.68;81.45
74542;BME280;63015;45.378;20.360;2023-02-28T05:02:53;101766.41;;;0.58;81.95
74542;BME280;63015;45.378;20.360;2023-02-28T05:04:54;101760.88;;;0.65;81.41
74542;BME280;63015;45.378;20.360;2023-02-28T05:06:54;101765.94;;;0.78;81.08
74542;BME280;63015;45.378;20.360;2023-02-28T05:08:56;101762.28;;;0.60;81.29
74542;BME280;63015;45.378;20.360;2023-02-28T05:10:56;101770.00;;;0.46;81.78
74542;BME280;63015;45.378;20.360;2023-02-28T05:12:57;101763.72;;;0.41;82.29
74542;BME280;63015;45.378;20.360;2023-02-28T05:14:57;101760.03;;;0.51;82.20
74542;BME280;63015;45.378;20.360;2023-02-28T05:16:58;101764.59;;;0.70;81.29
74542;BME280;63015;45.378;20.360;2023-02-28T05:18:59;101764.88;;;0.46;81.68
74542;BME280;63015;45.378;20.360;2023-02-28T05:21:00;101767.22;;;0.57;82.16
74542;BME280;63015;45.378;20.360;2023-02-28T05:23:02;101766.16;;;0.40;82.41
74542;BME280;63015;45.378;20.360;2023-02-28T05:25:04;101761.47;;;0.32;82.94
74542;BME280;63015;45.378;20.360;2023-02-28T05:27:05;101763.97;;;0.46;82.59
74542;BME280;63015;45.378;20.360;2023-02-28T05:29:06;101773.59;;;0.35;82.44
74542;BME280;63015;45.378;20.360;2023-02-28T05:31:09;101771.16;;;0.23;82.64
74542;BME280;63015;45.378;20.360;2023-02-28T05:33:11;101782.63;;;0.57;82.19
74542;BME280;63015;45.378;20.360;2023-02-28T05:35:12;101782.47;;;0.69;81.55
74542;BME280;63015;45.378;20.360;2023-02-28T05:37:14;101780.13;;;0.58;81.72
74542;BME280;63015;45.378;20.360;2023-02-28T05:39:15;101785.59;;;0.49;82.39
74542;BME280;63015;45.378;20.360;2023-02-28T05:41:17;101790.50;;;0.60;82.27
74542;BME280;63015;45.378;20.360;2023-02-28T05:43:19;101790.50;;;0.60;81.77
74542;BME280;63015;45.378;20.360;2023-02-28T05:45:19;101796.03;;;0.53;82.22
74542;BME280;63015;45.378;20.360;2023-02-28T05:47:20;101791.75;;;0.67;81.56
74542;BME280;63015;45.378;20.360;2023-02-28T05:49:20;101796.72;;;0.50;81.90
74542;BME280;63015;45.378;20.360;2023-02-28T05:51:21;101798.50;;;0.51;82.20
74542;BME280;63015;45.378;20.360;2023-02-28T05:53:21;101799.25;;;0.63;82.04
74542;BME280;63015;45.378;20.360;2023-02-28T05:55:22;101797.34;;;0.74;81.32
74542;BME280;63015;45.378;20.360;2023-02-28T05:57:23;101799.28;;;0.78;81.22
74542;BME280;63015;45.378;20.360;2023-02-28T05:59:23;101795.31;;;0.84;81.07
74542;BME280;63015;45.378;20.360;2023-02-28T06:03:31;101806.25;;;0.66;81.11
74542;BME280;63015;45.378;20.360;2023-02-28T06:05:31;101809.38;;;0.47;81.62
74542;BME280;63015;45.378;20.360;2023-02-28T06:07:32;101817.44;;;0.40;82.59
74542;BME280;63015;45.378;20.360;2023-02-28T06:09:33;101812.09;;;0.63;82.32
74542;BME280;63015;45.378;20.360;2023-02-28T06:11:33;101812.72;;;0.46;82.50
74542;BME280;63015;45.378;20.360;2023-02-28T06:13:34;101814.53;;;0.34;82.62
74542;BME280;63015;45.378;20.360;2023-02-28T06:15:34;101817.56;;;0.28;83.26
74542;BME280;63015;45.378;20.360;2023-02-28T06:17:35;101823.28;;;0.51;82.64
74542;BME280;63015;45.378;20.360;2023-02-28T06:19:37;101826.72;;;0.51;82.56
74542;BME280;63015;45.378;20.360;2023-02-28T06:21:39;101821.66;;;0.53;82.87
74542;BME280;63015;45.378;20.360;2023-02-28T06:23:39;101825.75;;;0.36;83.05
74542;BME280;63015;45.378;20.360;2023-02-28T06:25:40;101828.25;;;0.21;83.67
74542;BME280;63015;45.378;20.360;2023-02-28T06:27:44;101822.19;;;0.47;83.53
74542;BME280;63015;45.378;20.360;2023-02-28T06:29:44;101823.66;;;0.57;83.05
74542;BME280;63015;45.378;20.360;2023-02-28T06:31:45;101832.41;;;0.74;82.05
74542;BME280;63015;45.378;20.360;2023-02-28T06:33:47;101828.09;;;0.59;82.03
74542;BME280;63015;45.378;20.360;2023-02-28T06:35:51;101828.63;;;0.40;82.61
74542;BME280;63015;45.378;20.360;2023-02-28T06:37:51;101826.94;;;0.14;83.27
74542;BME280;63015;45.378;20.360;2023-02-28T06:39:53;101824.38;;;0.14;83.75
74542;BME280;63015;45.378;20.360;2023-02-28T06:41:54;101829.09;;;0.35;84.00
74542;BME280;63015;45.378;20.360;2023-02-28T06:43:54;101832.78;;;0.25;83.63
74542;BME280;63015;45.378;20.360;2023-02-28T06:45:57;101827.41;;;0.48;83.38
74542;BME280;63015;45.378;20.360;2023-02-28T06:47:58;101828.09;;;0.59;82.81
74542;BME280;63015;45.378;20.360;2023-02-28T06:50:00;101825.31;;;0.70;82.86
74542;BME280;63015;45.378;20.360;2023-02-28T06:52:01;101827.19;;;0.72;82.60
74542;BME280;63015;45.378;20.360;2023-02-28T06:54:02;101824.84;;;0.62;82.49
74542;BME280;63015;45.378;20.360;2023-02-28T06:56:07;101821.91;;;0.71;82.41
74542;BME280;63015;45.378;20.360;2023-02-28T06:58:09;101826.03;;;0.82;82.18
74542;BME280;63015;45.378;20.360;2023-02-28T07:00:19;101811.72;;;0.86;81.93
74542;BME280;63015;45.378;20.360;2023-02-28T07:02:19;101817.84;;;0.46;82.64
74542;BME280;63015;45.378;20.360;2023-02-28T07:04:20;101820.13;;;0.28;83.69
74542;BME280;63015;45.378;20.360;2023-02-28T07:06:21;101818.31;;;0.67;83.13
74542;BME280;63015;45.378;20.360;2023-02-28T07:08:25;101820.34;;;0.31;83.34
74542;BME280;63015;45.378;20.360;2023-02-28T07:10:27;101823.44;;;0.54;83.29
74542;BME280;63015;45.378;20.360;2023-02-28T07:12:27;101811.63;;;0.56;83.21
74542;BME280;63015;45.378;20.360;2023-02-28T07:14:28;101818.06;;;0.36;83.39
74542;BME280;63015;45.378;20.360;2023-02-28T07:16:28;101818.84;;;0.48;83.77
74542;BME280;63015;45.378;20.360;2023-02-28T07:18:29;101817.00;;;0.60;83.27
74542;BME280;63015;45.378;20.360;2023-02-28T07:20:30;101818.22;;;0.52;83.67
74542;BME280;63015;45.378;20.360;2023-02-28T07:22:30;101820.63;;;0.49;83.71
74542;BME280;63015;45.378;20.360;2023-02-28T07:24:31;101824.84;;;0.62;83.41
74542;BME280;63015;45.378;20.360;2023-02-28T07:26:32;101815.31;;;0.74;82.80
74542;BME280;63015;45.378;20.360;2023-02-28T07:28:34;101822.63;;;0.68;82.91
74542;BME280;63015;45.378;20.360;2023-02-28T07:30:34;101816.88;;;0.44;83.61
74542;BME280;63015;45.378;20.360;2023-02-28T07:32:35;101823.78;;;0.31;84.19
74542;BME280;63015;45.378;20.360;2023-02-28T07:34:38;101814.09;;;0.54;83.63
74542;BME280;63015;45.378;20.360;2023-02-28T07:36:38;101814.00;;;0.39;83.72
74542;BME280;63015;45.378;20.360;2023-02-28T07:38:39;101814.59;;;0.48;83.73
74542;BME280;63015;45.378;20.360;2023-02-28T07:40:39;101823.69;;;0.72;83.05
74542;BME280;63015;45.378;20.360;2023-02-28T07:42:41;101812.19;;;0.65;83.08
74542;BME280;63015;45.378;20.360;2023-02-28T07:44:42;101814.81;;;0.80;83.15
74542;BME280;63015;45.378;20.360;2023-02-28T07:46:43;101819.94;;;0.80;82.64
74542;BME280;63015;45.378;20.360;2023-02-28T07:48:44;101812.97;;;0.92;82.24
74542;BME280;63015;45.378;20.360;2023-02-28T07:50:54;101815.91;;;0.98;82.00
74542;BME280;63015;45.378;20.360;2023-02-28T07:52:55;101812.88;;;0.91;81.69
74542;BME280;63015;45.378;20.360;2023-02-28T07:54:56;101817.31;;;0.93;82.11
74542;BME280;63015;45.378;20.360;2023-02-28T07:56:56;101822.00;;;0.86;82.06
74542;BME280;63015;45.378;20.360;2023-02-28T07:58:57;101822.88;;;0.86;82.07
74542;BME280;63015;45.378;20.360;2023-02-28T08:01:05;101821.34;;;0.75;82.22
74542;BME280;63015;45.378;20.360;2023-02-28T08:03:05;101823.84;;;0.88;82.31
74542;BME280;63015;45.378;20.360;2023-02-28T08:05:06;101819.75;;;0.77;82.82
74542;BME280;63015;45.378;20.360;2023-02-28T08:07:07;101826.97;;;0.97;82.45
74542;BME280;63015;45.378;20.360;2023-02-28T08:09:08;101830.34;;;0.96;82.20
74542;BME280;63015;45.378;20.360;2023-02-28T08:11:08;101831.69;;;1.05;81.98
74542;BME280;63015;45.378;20.360;2023-02-28T08:13:09;101836.06;;;0.92;81.90
74542;BME280;63015;45.378;20.360;2023-02-28T08:15:10;101838.09;;;1.11;81.93
74542;BME280;63015;45.378;20.360;2023-02-28T08:17:10;101838.16;;;1.13;81.91
74542;BME280;63015;45.378;20.360;2023-02-28T08:19:11;101840.66;;;1.11;81.53
74542;BME280;63015;45.378;20.360;2023-02-28T08:21:12;101833.88;;;0.98;81.88
74542;BME280;63015;45.378;20.360;2023-02-28T08:23:12;101847.59;;;0.71;82.56
74542;BME280;63015;45.378;20.360;2023-02-28T08:25:13;101839.66;;;0.81;82.67
74542;BME280;63015;45.378;20.360;2023-02-28T08:27:13;101847.47;;;0.82;82.46
74542;BME280;63015;45.378;20.360;2023-02-28T08:29:17;101848.75;;;0.89;82.72
74542;BME280;63015;45.378;20.360;2023-02-28T08:31:18;101846.66;;;1.12;82.05
74542;BME280;63015;45.378;20.360;2023-02-28T08:33:19;101841.66;;;1.28;81.89
74542;BME280;63015;45.378;20.360;2023-02-28T08:35:19;101844.47;;;1.18;81.40
74542;BME280;63015;45.378;20.360;2023-02-28T08:37:20;101844.50;;;1.33;81.41
74542;BME280;63015;45.378;20.360;2023-02-28T08:39:20;101835.13;;;1.34;81.24
74542;BME280;63015;45.378;20.360;2023-02-28T08:41:21;101841.25;;;1.36;80.98
74542;BME280;63015;45.378;20.360;2023-02-28T08:43:21;101835.72;;;1.29;81.29
74542;BME280;63015;45.378;20.360;2023-02-28T08:45:22;101840.50;;;1.23;81.47
74542;BME280;63015;45.378;20.360;2023-02-28T08:47:22;101843.06;;;1.23;81.51
74542;BME280;63015;45.378;20.360;2023-02-28T08:49:23;101841.31;;;1.37;81.02
74542;BME280;63015;45.378;20.360;2023-02-28T08:51:23;101838.59;;;1.49;80.61
74542;BME280;63015;45.378;20.360;2023-02-28T08:53:27;101843.56;;;1.61;80.47
74542;BME280;63015;45.378;20.360;2023-02-28T08:55:27;101831.06;;;1.52;80.48
74542;BME280;63015;45.378;20.360;2023-02-28T08:57:28;101841.75;;;1.30;80.74
74542;BME280;63015;45.378;20.360;2023-02-28T08:59:29;101840.69;;;1.41;80.46
74542;BME280;63015;45.378;20.360;2023-02-28T09:01:30;101830.06;;;1.35;81.14
74542;BME280;63015;45.378;20.360;2023-02-28T09:03:31;101838.88;;;1.54;80.84
74542;BME280;63015;45.378;20.360;2023-02-28T09:05:32;101825.47;;;1.59;80.92
74542;BME280;63015;45.378;20.360;2023-02-28T09:07:33;101826.56;;;1.63;80.68
74542;BME280;63015;45.378;20.360;2023-02-28T09:09:33;101832.47;;;1.62;80.36
74542;BME280;63015;45.378;20.360;2023-02-28T09:11:34;101835.03;;;1.62;80.61
74542;BME280;63015;45.378;20.360;2023-02-28T09:13:35;101832.84;;;1.68;80.37
74542;BME280;63015;45.378;20.360;2023-02-28T09:15:39;101827.69;;;1.68;80.34
74542;BME280;63015;45.378;20.360;2023-02-28T09:17:40;101835.78;;;1.74;80.30
74542;BME280;63015;45.378;20.360;2023-02-28T09:19:40;101834.63;;;1.69;80.40
74542;BME280;63015;45.378;20.360;2023-02-28T09:21:41;101829.47;;;1.69;80.37
74542;BME280;63015;45.378;20.360;2023-02-28T09:23:46;101819.91;;;1.67;80.69
74542;BME280;63015;45.378;20.360;2023-02-28T09:25:50;101826.81;;;1.53;80.72
74542;BME280;63015;45.378;20.360;2023-02-28T09:27:51;101820.53;;;1.62;80.62
74542;BME280;63015;45.378;20.360;2023-02-28T09:29:51;101821.03;;;1.57;80.73
74542;BME280;63015;45.378;20.360;2023-02-28T09:31:52;101821.94;;;1.57;81.02
74542;BME280;63015;45.378;20.360;2023-02-28T09:33:54;101825.72;;;1.79;81.04
74542;BME280;63015;45.378;20.360;2023-02-28T09:36:00;101819.72;;;1.63;80.64
74542;BME280;63015;45.378;20.360;2023-02-28T09:38:01;101810.69;;;1.70;80.98
74542;BME280;63015;45.378;20.360;2023-02-28T09:40:03;101816.88;;;1.29;81.62
74542;BME280;63015;45.378;20.360;2023-02-28T09:42:04;101821.91;;;1.27;82.27
74542;BME280;63015;45.378;20.360;2023-02-28T09:44:05;101818.75;;;1.31;82.77
74542;BME280;63015;45.378;20.360;2023-02-28T09:46:21;101825.03;;;1.52;82.17
74542;BME280;63015;45.378;20.360;2023-02-28T09:48:39;101837.19;;;1.39;82.17
74542;BME280;63015;45.378;20.360;2023-02-28T09:50:42;101827.59;;;1.52;82.08
74542;BME280;63015;45.378;20.360;2023-02-28T09:52:48;101830.56;;;1.73;81.17
74542;BME280;63015;45.378;20.360;2023-02-28T09:54:50;101832.69;;;1.65;81.23
74542;BME280;63015;45.378;20.360;2023-02-28T09:56:53;101834.59;;;1.84;80.82
74542;BME280;63015;45.378;20.360;2023-02-28T09:59:05;101828.84;;;1.73;81.21
74542;BME280;63015;45.378;20.360;2023-02-28T10:03:43;101833.97;;;2.18;80.32
74542;BME280;63015;45.378;20.360;2023-02-28T10:06:11;101833.75;;;2.30;80.03
74542;BME280;63015;45.378;20.360;2023-02-28T10:08:21;101840.44;;;2.43;79.78
74542;BME280;63015;45.378;20.360;2023-02-28T10:12:27;101842.31;;;2.45;79.73
74542;BME280;63015;45.378;20.360;2023-02-28T10:14:32;101845.63;;;2.28;79.43
74542;BME280;63015;45.378;20.360;2023-02-28T10:16:43;101842.94;;;2.41;79.51
74542;BME280;63015;45.378;20.360;2023-02-28T10:18:52;101840.88;;;2.51;79.38
74542;BME280;63015;45.378;20.360;2023-02-28T10:20:54;101833.56;;;2.58;79.07
74542;BME280;63015;45.378;20.360;2023-02-28T10:23:04;101839.81;;;2.47;79.42
74542;BME280;63015;45.378;20.360;2023-02-28T10:25:23;101829.34;;;2.12;80.19
74542;BME280;63015;45.378;20.360;2023-02-28T10:27:27;101834.38;;;2.26;80.40
74542;BME280;63015;45.378;20.360;2023-02-28T10:29:31;101828.25;;;2.24;80.34
74542;BME280;63015;45.378;20.360;2023-02-28T10:31:33;101835.44;;;2.29;80.01
74542;BME280;63015;45.378;20.360;2023-02-28T10:33:34;101831.63;;;2.23;80.35
74542;BME280;63015;45.378;20.360;2023-02-28T10:35:35;101830.66;;;2.21;80.51
74542;BME280;63015;45.378;20.360;2023-02-28T10:37:40;101830.88;;;2.40;80.23
74542;BME280;63015;45.378;20.360;2023-02-28T10:39:46;101827.84;;;2.47;80.17
74542;BME280;63015;45.378;20.360;2023-02-28T10:41:47;101819.31;;;2.49;80.13
74542;BME280;63015;45.378;20.360;2023-02-28T10:43:48;101813.03;;;2.43;79.88
74542;BME280;63015;45.378;20.360;2023-02-28T10:52:54;101803.75;;;2.78;79.41
74542;BME280;63015;45.378;20.360;2023-02-28T10:55:15;101801.53;;;2.85;79.32
74542;BME280;63015;45.378;20.360;2023-02-28T10:57:18;101803.03;;;2.98;79.10
74542;BME280;63015;45.378;20.360;2023-02-28T10:59:29;101805.84;;;3.02;79.02
74542;BME280;63015;45.378;20.360;2023-02-28T11:03:33;101803.31;;;3.20;78.92
74542;BME280;63015;45.378;20.360;2023-02-28T11:05:35;101810.25;;;3.21;78.56
74542;BME280;63015;45.378;20.360;2023-02-28T11:07:36;101805.81;;;3.35;78.38
74542;BME280;63015;45.378;20.360;2023-02-28T11:09:40;101805.22;;;3.41;78.29
74542;BME280;63015;45.378;20.360;2023-02-28T11:11:44;101806.03;;;3.40;78.14
74542;BME280;63015;45.378;20.360;2023-02-28T11:13:46;101801.06;;;3.43;78.01
74542;BME280;63015;45.378;20.360;2023-02-28T11:15:53;101803.69;;;3.44;78.21
74542;BME280;63015;45.378;20.360;2023-02-28T11:17:57;101798.78;;;3.49;78.13
74542;BME280;63015;45.378;20.360;2023-02-28T11:20:02;101794.75;;;3.54;78.16
74542;BME280;63015;45.378;20.360;2023-02-28T11:22:04;101794.00;;;3.57;78.05
74542;BME280;63015;45.378;20.360;2023-02-28T11:24:21;101794.94;;;3.59;77.99
74542;BME280;63015;45.378;20.360;2023-02-28T11:26:44;101801.56;;;3.54;77.95
74542;BME280;63015;45.378;20.360;2023-02-28T11:28:45;101800.34;;;3.64;78.03
74542;BME280;63015;45.378;20.360;2023-02-28T11:30:46;101795.97;;;3.44;77.93
74542;BME280;63015;45.378;20.360;2023-02-28T11:32:59;101788.53;;;3.51;78.17
74542;BME280;63015;45.378;20.360;2023-02-28T11:35:02;101793.91;;;3.55;78.18
74542;BME280;63015;45.378;20.360;2023-02-28T11:37:11;101787.09;;;3.56;78.06
74542;BME280;63015;45.378;20.360;2023-02-28T11:39:12;101783.47;;;3.52;78.16